Time;durP1;ratioP1;P1;durP2;ratioP2;P2;SDS_P1;SDS_P2;PMS_P1;PMS_P2;Temp;Humidity;BMP_temperature;BMP_pressure;BME280_temperature;BME280_humidity;BME280_pressure;Samples;Min_cycle;Max_cycle;Signal;HPM_P1;HPM_P2
2020/12/08 00:00:16;;;;;;;25.25;12.35;;;3.80;99.90;;;;;;5010765;28;20446;-78
2020/12/08 00:02:42;;;;;;;27.63;12.20;;;3.80;99.90;;;;;;5009426;28;20751;-78
2020/12/08 00:05:08;;;;;;;29.90;13.60;;;3.80;99.90;;;;;;5010991;28;20044;-78
2020/12/08 00:07:33;;;;;;;25.88;12.35;;;3.80;99.90;;;;;;5026200;28;20184;-78
2020/12/08 00:09:59;;;;;;;31.52;14.10;;;3.80;99.90;;;;;;5010932;28;20037;-78
2020/12/08 00:12:26;;;;;;;25.25;12.50;;;3.80;99.90;;;;;;5011468;28;20046;-78
2020/12/08 00:14:52;;;;;;;25.75;12.88;;;3.80;99.90;;;;;;5009497;28;20046;-78
2020/12/08 00:17:18;;;;;;;28.73;13.20;;;3.80;99.90;;;;;;5007796;28;20038;-78
2020/12/08 00:19:43;;;;;;;27.90;13.70;;;3.70;99.90;;;;;;5009036;28;20068;-78
2020/12/08 00:22:09;;;;;;;24.25;12.77;;;3.70;99.90;;;;;;5010605;28;20574;-78
2020/12/08 00:24:35;;;;;;;28.00;14.10;;;3.80;99.90;;;;;;5044383;28;20117;-78
2020/12/08 00:27:00;;;;;;;27.45;12.95;;;3.80;99.90;;;;;;5040016;28;20038;-78
2020/12/08 00:29:26;;;;;;;29.73;14.15;;;3.80;99.90;;;;;;5029302;28;20037;-78
2020/12/08 00:31:51;;;;;;;26.73;14.20;;;3.80;99.90;;;;;;5025813;28;20046;-78
2020/12/08 00:34:17;;;;;;;33.85;14.65;;;3.80;99.90;;;;;;5032851;28;20156;-79
2020/12/08 00:36:42;;;;;;;29.48;14.55;;;3.80;99.90;;;;;;5031801;28;20038;-78
2020/12/08 00:39:08;;;;;;;27.00;14.18;;;3.70;99.90;;;;;;5032906;28;20029;-78
2020/12/08 00:41:33;;;;;;;29.23;12.85;;;3.80;99.90;;;;;;5027001;28;20045;-78
2020/12/08 00:43:59;;;;;;;30.67;14.07;;;3.80;99.90;;;;;;5033963;28;20466;-78
2020/12/08 00:46:24;;;;;;;31.48;14.95;;;3.80;99.90;;;;;;5035451;28;20106;-77
2020/12/08 00:48:50;;;;;;;28.85;14.93;;;3.80;99.90;;;;;;5032337;28;20079;-78
2020/12/08 00:51:17;;;;;;;33.85;14.88;;;3.80;99.90;;;;;;5038090;28;20068;-78
2020/12/08 00:53:42;;;;;;;30.65;15.15;;;3.80;99.90;;;;;;5023341;28;20052;-78
2020/12/08 00:56:09;;;;;;;30.67;14.40;;;3.80;99.90;;;;;;5017239;28;20046;-78
2020/12/08 00:58:35;;;;;;;24.90;12.98;;;3.80;99.90;;;;;;5016996;28;20136;-78
2020/12/08 01:01:01;;;;;;;36.33;15.48;;;3.80;99.90;;;;;;5017602;28;20045;-78
2020/12/08 01:03:27;;;;;;;29.08;14.23;;;3.80;99.90;;;;;;5017911;28;20076;-78
2020/12/08 01:05:52;;;;;;;33.05;14.30;;;3.80;99.90;;;;;;5017943;28;20080;-78
2020/12/08 01:08:18;;;;;;;35.10;16.20;;;3.80;99.90;;;;;;5019560;28;20034;-78
2020/12/08 01:10:43;;;;;;;31.42;16.33;;;3.90;99.90;;;;;;5019939;28;20049;-78
2020/12/08 01:13:09;;;;;;;31.15;15.43;;;3.90;99.90;;;;;;5032314;28;20045;-78
2020/12/08 01:15:34;;;;;;;34.50;16.00;;;3.90;99.90;;;;;;5019711;28;20050;-78
2020/12/08 01:18:00;;;;;;;31.67;15.32;;;3.90;99.90;;;;;;5022078;28;20034;-78
2020/12/08 01:20:26;;;;;;;34.85;16.92;;;3.90;99.90;;;;;;5027278;28;20428;-78
2020/12/08 01:22:51;;;;;;;32.28;15.65;;;3.90;99.90;;;;;;5022294;28;20061;-79
2020/12/08 01:25:18;;;;;;;34.90;16.10;;;3.90;99.90;;;;;;5025064;28;20038;-79
2020/12/08 01:27:44;;;;;;;33.80;16.95;;;3.90;99.90;;;;;;5019160;28;20540;-78
2020/12/08 01:30:09;;;;;;;34.40;15.90;;;3.90;99.90;;;;;;5024210;28;20124;-78
2020/12/08 01:32:35;;;;;;;34.13;16.23;;;3.90;99.90;;;;;;5018505;28;20042;-78
2020/12/08 01:35:00;;;;;;;34.83;16.65;;;3.90;99.90;;;;;;5017548;28;20041;-79
2020/12/08 01:37:26;;;;;;;35.28;16.20;;;3.90;99.90;;;;;;5015480;28;20178;-78
2020/12/08 01:39:52;;;;;;;31.73;15.32;;;3.90;99.90;;;;;;5018413;28;20514;-78
2020/12/08 01:42:17;;;;;;;34.40;15.93;;;3.80;99.80;;;;;;5018723;28;20048;-78
2020/12/08 01:44:47;;;;;;;35.33;17.40;;;3.80;99.90;;;;;;5021144;28;20047;-78
2020/12/08 01:47:15;;;;;;;33.78;16.50;;;3.80;99.90;;;;;;5021285;28;20038;-78
2020/12/08 01:49:42;;;;;;;37.88;17.20;;;3.80;99.90;;;;;;5022255;28;20045;-79
2020/12/08 01:52:08;;;;;;;36.78;15.75;;;3.80;99.80;;;;;;5020303;28;20041;-79
2020/12/08 01:54:33;;;;;;;34.92;16.63;;;3.80;99.90;;;;;;5018292;28;20076;-78
2020/12/08 01:56:59;;;;;;;31.65;15.30;;;3.80;99.90;;;;;;5021142;28;20046;-78
2020/12/08 01:59:24;;;;;;;33.38;16.58;;;3.80;99.70;;;;;;5023764;28;20103;-79
2020/12/08 02:01:50;;;;;;;33.70;16.75;;;3.80;99.50;;;;;;5019225;28;20065;-78
2020/12/08 02:04:15;;;;;;;34.17;17.15;;;3.80;99.40;;;;;;5025348;28;20372;-78
2020/12/08 02:06:41;;;;;;;37.03;16.35;;;3.80;99.50;;;;;;5024214;28;20037;-78
2020/12/08 02:09:06;;;;;;;31.13;14.93;;;3.80;99.40;;;;;;5026091;28;20104;-78
2020/12/08 02:11:32;;;;;;;35.92;16.55;;;3.80;99.10;;;;;;5017264;28;20506;-78
2020/12/08 02:13:57;;;;;;;33.40;15.25;;;3.80;99.10;;;;;;5033731;28;20045;-78
2020/12/08 02:16:23;;;;;;;38.15;17.77;;;3.70;99.20;;;;;;5026818;28;20038;-78
2020/12/08 02:18:48;;;;;;;34.47;16.25;;;3.80;99.40;;;;;;5028746;28;20125;-77
2020/12/08 02:21:15;;;;;;;34.10;16.35;;;3.80;99.30;;;;;;5024332;28;20081;-77
2020/12/08 02:23:50;;;;;;;33.75;15.68;;;3.70;99.10;;;;;;5012415;28;20045;-78
2020/12/08 02:26:15;;;;;;;34.85;16.85;;;3.70;99.10;;;;;;5011395;28;20045;-78
2020/12/08 02:28:41;;;;;;;37.60;16.02;;;3.70;99.10;;;;;;5011375;28;20611;-77
2020/12/08 02:31:06;;;;;;;38.08;16.55;;;3.60;99.30;;;;;;5012278;28;20037;-78
2020/12/08 02:33:32;;;;;;;37.17;17.20;;;3.60;99.50;;;;;;5012675;28;20052;-78
2020/12/08 02:35:58;;;;;;;35.85;17.35;;;3.50;99.70;;;;;;5012402;28;20048;-78
2020/12/08 02:38:24;;;;;;;39.75;16.88;;;3.50;99.70;;;;;;5015075;28;20048;-78
2020/12/08 02:40:51;;;;;;;36.22;16.95;;;3.60;99.70;;;;;;5017129;28;20046;-78
2020/12/08 02:43:16;;;;;;;36.13;17.77;;;3.60;99.50;;;;;;5015223;28;20095;-78
2020/12/08 02:45:43;;;;;;;37.72;17.38;;;3.60;99.40;;;;;;5011714;28;20037;-78
2020/12/08 02:48:08;;;;;;;35.42;16.55;;;3.60;99.40;;;;;;5013490;28;20125;-77
2020/12/08 02:50:36;;;;;;;36.30;17.67;;;3.70;99.50;;;;;;5028621;28;20128;-78
2020/12/08 02:53:01;;;;;;;36.58;16.48;;;3.60;99.40;;;;;;5012367;28;20053;-78
2020/12/08 02:55:27;;;;;;;36.65;16.55;;;3.60;99.40;;;;;;5015203;28;20436;-78
2020/12/08 02:57:52;;;;;;;36.45;17.30;;;3.60;99.40;;;;;;5012019;28;20051;-78
2020/12/08 03:00:18;;;;;;;37.10;17.55;;;3.60;99.60;;;;;;5018683;28;20218;-78
2020/12/08 03:02:43;;;;;;;38.70;18.17;;;3.60;99.60;;;;;;5014687;28;20038;-78
2020/12/08 03:05:09;;;;;;;42.55;18.85;;;3.50;99.40;;;;;;5021133;28;20045;-78
2020/12/08 03:07:34;;;;;;;35.28;16.85;;;3.60;99.50;;;;;;5013446;28;20065;-78
2020/12/08 03:10:00;;;;;;;36.72;17.77;;;3.50;99.50;;;;;;5014909;28;20058;-77
2020/12/08 03:12:25;;;;;;;39.33;17.83;;;3.50;99.50;;;;;;5013835;28;20034;-78
2020/12/08 03:14:51;;;;;;;45.92;19.80;;;3.50;99.60;;;;;;5017013;28;20037;-78
2020/12/08 03:17:17;;;;;;;42.13;18.60;;;3.50;99.70;;;;;;5021396;28;20030;-78
2020/12/08 03:19:42;;;;;;;40.92;18.92;;;3.40;99.50;;;;;;5013771;28;20045;-78
2020/12/08 03:22:08;;;;;;;41.20;18.98;;;3.50;99.50;;;;;;5025847;28;20261;-79
2020/12/08 03:24:34;;;;;;;39.97;18.67;;;3.40;99.70;;;;;;5031760;28;20112;-78
2020/12/08 03:26:59;;;;;;;42.90;19.67;;;3.40;99.60;;;;;;5016566;28;20061;-78
2020/12/08 03:29:25;;;;;;;40.38;18.20;;;3.40;99.60;;;;;;5025553;28;20533;-78
2020/12/08 03:31:50;;;;;;;41.78;18.92;;;3.40;99.70;;;;;;5023542;28;20034;-78
2020/12/08 03:34:16;;;;;;;40.97;18.30;;;3.30;99.70;;;;;;5025679;28;20045;-78
2020/12/08 03:36:41;;;;;;;43.92;19.52;;;3.30;99.90;;;;;;5026551;28;20042;-78
2020/12/08 03:39:07;;;;;;;43.78;19.88;;;3.30;99.90;;;;;;5036906;28;20049;-78
2020/12/08 03:41:33;;;;;;;42.38;18.92;;;3.10;99.90;;;;;;5033045;28;20045;-78
2020/12/08 03:43:58;;;;;;;46.90;21.75;;;3.20;99.90;;;;;;5028415;28;20030;-78
2020/12/08 03:46:25;;;;;;;45.78;20.63;;;3.20;99.90;;;;;;5036672;28;20106;-78
2020/12/08 03:48:52;;;;;;;41.85;18.75;;;3.20;99.90;;;;;;5028383;28;20040;-78
2020/12/08 03:51:21;;;;;;;44.90;21.25;;;3.10;99.90;;;;;;5029444;28;20172;-78
2020/12/08 03:53:47;;;;;;;46.13;21.40;;;3.10;99.90;;;;;;5020844;28;20056;-78
2020/12/08 03:56:15;;;;;;;45.00;20.50;;;3.10;99.90;;;;;;5018718;28;20054;-78
2020/12/08 03:58:41;;;;;;;45.58;20.40;;;3.10;99.90;;;;;;5025190;28;20092;-78
2020/12/08 04:01:12;;;;;;;47.38;21.80;;;3.10;99.90;;;;;;5027599;28;20087;-78
2020/12/08 04:03:38;;;;;;;43.47;20.45;;;3.20;99.90;;;;;;5031069;28;20511;-78
2020/12/08 04:06:04;;;;;;;46.97;21.48;;;3.10;99.90;;;;;;5033003;28;20045;-79
2020/12/08 04:08:30;;;;;;;48.38;21.88;;;3.10;99.90;;;;;;5028811;28;20091;-78
2020/12/08 04:10:55;;;;;;;44.55;20.55;;;3.00;99.90;;;;;;5029714;28;20041;-78
2020/12/08 04:13:21;;;;;;;46.70;20.35;;;3.00;99.90;;;;;;5028282;28;20530;-78
2020/12/08 04:15:47;;;;;;;46.00;20.83;;;2.90;99.90;;;;;;5026839;28;20041;-78
2020/12/08 04:18:15;;;;;;;43.92;21.38;;;2.90;99.90;;;;;;5030313;28;20511;-78
2020/12/08 04:20:44;;;;;;;43.92;20.48;;;2.90;99.90;;;;;;5030584;28;20533;-78
2020/12/08 04:23:15;;;;;;;46.13;21.45;;;2.80;99.90;;;;;;5021846;28;20068;-77
2020/12/08 04:25:41;;;;;;;44.70;20.80;;;2.80;99.90;;;;;;5024009;28;20072;-78
2020/12/08 04:28:07;;;;;;;42.67;20.98;;;2.70;99.90;;;;;;5025607;28;20057;-78
2020/12/08 04:30:34;;;;;;;45.60;20.13;;;2.70;99.90;;;;;;5022744;28;20042;-79
2020/12/08 04:33:00;;;;;;;47.85;20.77;;;2.70;99.90;;;;;;5036745;28;20053;-79
2020/12/08 04:35:26;;;;;;;45.28;20.17;;;2.70;99.90;;;;;;5028851;28;20458;-80
2020/12/08 04:37:52;;;;;;;46.05;21.55;;;2.60;99.90;;;;;;5017415;28;20052;-78
2020/12/08 04:40:18;;;;;;;53.28;21.25;;;2.60;99.90;;;;;;5019984;28;20033;-78
2020/12/08 04:42:47;;;;;;;44.35;20.83;;;2.60;99.90;;;;;;5022643;28;20045;-78
2020/12/08 04:45:14;;;;;;;50.70;21.85;;;2.70;99.90;;;;;;5023838;28;20045;-78
2020/12/08 04:47:46;;;;;;;45.20;21.40;;;2.60;99.90;;;;;;5022694;28;20541;-78
2020/12/08 04:50:13;;;;;;;50.67;21.17;;;2.60;99.90;;;;;;5026510;28;20056;-78
2020/12/08 04:52:40;;;;;;;42.15;19.65;;;2.60;99.90;;;;;;5023298;28;20041;-78
2020/12/08 04:55:06;;;;;;;42.85;19.67;;;2.70;99.90;;;;;;5028555;28;20053;-78
2020/12/08 04:57:32;;;;;;;44.42;20.35;;;2.70;99.90;;;;;;5021780;28;20072;-79
2020/12/08 05:00:12;;;;;;;49.38;20.85;;;2.70;99.90;;;;;;5018779;28;20041;-79
2020/12/08 05:02:54;;;;;;;41.90;20.38;;;2.70;99.90;;;;;;5013771;28;20063;-78
2020/12/08 05:05:21;;;;;;;45.38;19.98;;;2.70;99.90;;;;;;5013033;28;20045;-78
2020/12/08 05:07:48;;;;;;;45.92;21.33;;;2.70;99.90;;;;;;5008815;28;20230;-77
2020/12/08 05:10:14;;;;;;;48.55;21.25;;;2.80;99.90;;;;;;5011464;28;20501;-78
2020/12/08 05:12:40;;;;;;;47.05;22.00;;;2.70;99.90;;;;;;5030512;28;20103;-78
2020/12/08 05:15:15;;;;;;;45.60;20.92;;;2.80;99.90;;;;;;5012020;28;20030;-78
2020/12/08 05:17:40;;;;;;;45.65;20.73;;;2.80;99.90;;;;;;5013912;28;20046;-79
2020/12/08 05:20:11;;;;;;;48.28;20.27;;;2.70;99.90;;;;;;5031195;28;20048;-78
2020/12/08 05:22:38;;;;;;;45.17;22.25;;;2.80;99.90;;;;;;5028743;28;20049;-78
2020/12/08 05:25:16;;;;;;;46.78;20.50;;;2.80;99.90;;;;;;5017065;28;20061;-79
2020/12/08 05:27:48;;;;;;;43.88;19.95;;;2.80;99.90;;;;;;5016640;28;20118;-77
2020/12/08 05:30:14;;;;;;;52.47;22.17;;;2.80;99.90;;;;;;5012419;28;21507;-78
2020/12/08 05:32:40;;;;;;;49.63;21.58;;;2.80;99.90;;;;;;5009283;28;20573;-78
2020/12/08 05:35:09;;;;;;;43.45;21.50;;;2.80;99.90;;;;;;5014045;28;20135;-78
2020/12/08 05:37:39;;;;;;;50.28;22.17;;;2.80;99.90;;;;;;5008615;28;20610;-79
2020/12/08 05:40:08;;;;;;;44.55;20.73;;;2.90;99.90;;;;;;5017769;28;20037;-79
2020/12/08 05:42:36;;;;;;;46.22;21.75;;;2.80;99.90;;;;;;5011336;28;20041;-78
2020/12/08 05:45:10;;;;;;;48.80;22.15;;;2.80;99.90;;;;;;5015684;28;20804;-78
2020/12/08 05:47:44;;;;;;;49.10;21.27;;;2.80;99.90;;;;;;5013986;28;20171;-79
2020/12/08 05:50:09;;;;;;;46.55;21.50;;;2.90;99.90;;;;;;5020961;28;20079;-78
2020/12/08 05:52:38;;;;;;;49.65;22.38;;;2.80;99.90;;;;;;5023448;28;20045;-78
2020/12/08 05:55:12;;;;;;;53.95;22.92;;;2.80;99.90;;;;;;5007405;28;20038;-77
2020/12/08 05:57:39;;;;;;;47.53;21.65;;;2.90;99.90;;;;;;5029283;28;20419;-77
2020/12/08 06:00:07;;;;;;;48.47;21.90;;;2.90;99.90;;;;;;5022862;28;20036;-79
2020/12/08 06:02:32;;;;;;;48.55;21.83;;;2.90;99.90;;;;;;5021800;28;20521;-76
2020/12/08 06:04:59;;;;;;;50.25;21.23;;;2.90;99.90;;;;;;5017596;28;20033;-78
2020/12/08 06:07:29;;;;;;;48.33;21.98;;;2.90;99.90;;;;;;5022758;28;20115;-78
2020/12/08 06:10:06;;;;;;;50.53;21.23;;;2.90;99.90;;;;;;5020966;28;20533;-80
2020/12/08 06:12:31;;;;;;;56.38;23.30;;;3.20;99.90;;;;;;5016440;28;20151;-79
2020/12/08 06:14:58;;;;;;;50.78;22.42;;;2.90;99.90;;;;;;5017872;28;20131;-81
2020/12/08 06:17:23;;;;;;;45.22;21.73;;;2.90;99.90;;;;;;5014819;28;20033;-79
2020/12/08 06:19:50;;;;;;;47.65;21.98;;;2.90;99.90;;;;;;4999820;28;20045;-79
2020/12/08 06:22:18;;;;;;;46.20;22.23;;;2.80;99.90;;;;;;5015797;28;20037;-78
2020/12/08 06:24:54;;;;;;;47.15;21.38;;;2.60;99.90;;;;;;5011553;28;20051;-80
2020/12/08 06:27:21;;;;;;;45.92;21.15;;;2.80;99.90;;;;;;5021044;28;20048;-80
2020/12/08 06:29:54;;;;;;;46.47;20.75;;;2.80;99.90;;;;;;5025060;28;20056;-80
2020/12/08 06:32:27;;;;;;;43.80;20.77;;;2.80;99.90;;;;;;5020131;28;20405;-79
2020/12/08 06:35:08;;;;;;;49.42;20.90;;;2.80;99.90;;;;;;5011808;28;20053;-79
2020/12/08 06:37:34;;;;;;;45.17;20.92;;;2.70;99.90;;;;;;5018426;28;20052;-79
2020/12/08 06:40:11;;;;;;;49.72;20.90;;;2.70;99.90;;;;;;5023449;28;20285;-79
2020/12/08 06:42:37;;;;;;;47.53;20.27;;;2.60;99.90;;;;;;5016568;28;20445;-78
2020/12/08 06:45:07;;;;;;;43.42;20.15;;;2.60;99.90;;;;;;5006627;28;20049;-79
2020/12/08 06:47:33;;;;;;;44.97;20.17;;;2.50;99.90;;;;;;5012143;28;20091;-79
2020/12/08 06:49:58;;;;;;;43.28;20.90;;;2.40;99.90;;;;;;5025844;28;20045;-80
2020/12/08 06:52:24;;;;;;;46.78;21.30;;;2.40;99.90;;;;;;5053189;28;20029;-79
2020/12/08 06:55:03;;;;;;;46.05;20.98;;;2.30;99.90;;;;;;5032285;28;20040;-79
2020/12/08 06:57:29;;;;;;;40.97;19.50;;;2.30;99.90;;;;;;5026703;28;20106;-79
2020/12/08 07:00:15;;;;;;;50.13;21.23;;;2.20;99.90;;;;;;5021505;28;20084;-80
2020/12/08 07:02:49;;;;;;;53.45;21.88;;;2.20;99.90;;;;;;5007419;28;20083;-80
2020/12/08 07:05:23;;;;;;;53.55;20.88;;;2.20;99.90;;;;;;5015470;28;20044;-79
2020/12/08 07:07:49;;;;;;;47.08;21.42;;;2.20;99.90;;;;;;5013272;28;20041;-79
2020/12/08 07:10:17;;;;;;;50.20;22.45;;;2.20;99.90;;;;;;5013069;28;20441;-78
2020/12/08 07:12:45;;;;;;;46.95;22.85;;;2.20;99.90;;;;;;5013779;28;20037;-80
2020/12/08 07:15:15;;;;;;;51.50;22.58;;;2.30;99.90;;;;;;5016873;28;20038;-79
2020/12/08 07:17:42;;;;;;;52.53;23.20;;;2.30;99.90;;;;;;5012201;28;20069;-79
2020/12/08 07:20:07;;;;;;;51.30;22.70;;;2.40;99.90;;;;;;5039133;28;20033;-79
2020/12/08 07:22:49;;;;;;;48.05;21.83;;;2.40;99.90;;;;;;5027879;28;20532;-80
2020/12/08 07:25:16;;;;;;;50.30;21.75;;;2.40;99.90;;;;;;5020383;28;20044;-80
2020/12/08 07:27:53;;;;;;;51.35;23.02;;;2.40;99.90;;;;;;5022895;28;20042;-79
2020/12/08 07:30:27;;;;;;;53.78;22.52;;;2.40;99.90;;;;;;5014819;28;20140;-79
2020/12/08 07:32:53;;;;;;;49.80;22.45;;;2.20;99.90;;;;;;5021692;28;20499;-79
2020/12/08 07:35:24;;;;;;;49.90;22.48;;;2.40;99.90;;;;;;5022091;28;20060;-79
2020/12/08 07:37:52;;;;;;;51.95;21.65;;;2.50;99.90;;;;;;5017319;28;20033;-79
2020/12/08 07:40:18;;;;;;;50.80;22.30;;;2.50;99.90;;;;;;5022669;28;20112;-80
2020/12/08 07:42:48;;;;;;;49.08;22.27;;;2.50;99.90;;;;;;5016067;28;20125;-80
2020/12/08 07:45:14;;;;;;;54.22;24.45;;;2.40;99.90;;;;;;5020209;28;20045;-80
2020/12/08 07:47:40;;;;;;;49.85;23.58;;;2.50;99.90;;;;;;5019663;28;20139;-81
2020/12/08 07:50:06;;;;;;;55.58;23.15;;;2.40;99.90;;;;;;5024090;28;20116;-81
2020/12/08 07:52:32;;;;;;;53.35;24.00;;;2.50;99.90;;;;;;5021816;28;20053;-82
2020/12/08 07:54:57;;;;;;;54.75;23.83;;;2.50;99.90;;;;;;5019702;28;20037;-80
2020/12/08 07:57:23;;;;;;;59.92;26.05;;;2.50;99.90;;;;;;5034834;28;20041;-79
2020/12/08 07:59:48;;;;;;;62.10;25.67;;;2.50;99.90;;;;;;5026548;28;20130;-78
2020/12/08 08:02:14;;;;;;;56.95;25.42;;;2.50;99.90;;;;;;5022774;28;20509;-80
2020/12/08 08:04:39;;;;;;;67.05;24.88;;;2.50;99.90;;;;;;5025267;28;20061;-80
2020/12/08 08:07:05;;;;;;;51.35;24.02;;;2.40;99.90;;;;;;5018877;28;20055;-79
2020/12/08 08:09:32;;;;;;;61.63;26.83;;;2.40;99.90;;;;;;5019890;28;20044;-81
2020/12/08 08:11:57;;;;;;;56.00;24.67;;;2.50;99.90;;;;;;5018098;28;20037;-79
2020/12/08 08:14:23;;;;;;;56.35;25.15;;;2.50;99.90;;;;;;5019314;28;20045;-80
2020/12/08 08:16:48;;;;;;;51.28;24.08;;;2.50;99.90;;;;;;5026991;28;20045;-80
2020/12/08 08:19:14;;;;;;;51.80;22.85;;;2.50;99.90;;;;;;5017627;28;20041;-83
2020/12/08 08:21:44;;;;;;;51.55;23.75;;;2.40;99.90;;;;;;5039985;28;20087;-83
2020/12/08 08:24:09;;;;;;;60.28;25.60;;;2.40;99.90;;;;;;5033051;28;20580;-82
2020/12/08 08:26:39;;;;;;;53.47;24.65;;;2.50;99.90;;;;;;5025273;28;20037;-79
2020/12/08 08:29:05;;;;;;;55.55;24.35;;;2.50;99.90;;;;;;5020194;28;20044;-80
2020/12/08 08:31:30;;;;;;;54.70;24.60;;;2.60;99.90;;;;;;5021311;28;20046;-79
2020/12/08 08:33:56;;;;;;;51.60;22.55;;;2.60;99.90;;;;;;5020422;28;20077;-79
2020/12/08 08:36:22;;;;;;;56.55;23.52;;;2.70;99.90;;;;;;5020380;28;20510;-79
2020/12/08 08:38:47;;;;;;;49.97;21.63;;;2.70;99.90;;;;;;5034756;28;20052;-81
2020/12/08 08:41:13;;;;;;;51.38;23.15;;;2.80;99.90;;;;;;4973071;28;20416;-83
2020/12/08 08:43:39;;;;;;;50.20;21.42;;;2.90;99.90;;;;;;5007734;28;20049;-80
2020/12/08 08:46:04;;;;;;;50.10;22.30;;;2.90;99.90;;;;;;5018108;28;20049;-81
2020/12/08 08:48:31;;;;;;;48.20;20.83;;;2.90;99.90;;;;;;5020734;28;20137;-82
2020/12/08 08:50:56;;;;;;;48.17;22.20;;;2.90;99.90;;;;;;5016915;28;20076;-80
2020/12/08 08:53:22;;;;;;;56.65;23.95;;;3.00;99.90;;;;;;5016194;28;20522;-82
2020/12/08 08:55:47;;;;;;;52.95;23.80;;;3.00;99.90;;;;;;5018059;28;20068;-80
2020/12/08 08:58:14;;;;;;;54.28;23.45;;;3.10;99.90;;;;;;5016779;28;20080;-80
2020/12/08 09:00:39;;;;;;;58.40;24.20;;;3.20;99.90;;;;;;5020383;28;20448;-81
2020/12/08 09:03:06;;;;;;;48.58;22.25;;;3.30;99.90;;;;;;5021982;28;20566;-81
2020/12/08 09:05:32;;;;;;;51.67;22.15;;;3.50;99.90;;;;;;5024086;28;20065;-81
2020/12/08 09:07:58;;;;;;;47.15;22.48;;;3.50;99.90;;;;;;5019451;28;20048;-80
2020/12/08 09:10:23;;;;;;;53.63;23.25;;;3.60;99.90;;;;;;5020631;28;20041;-81
2020/12/08 09:12:49;;;;;;;48.80;22.15;;;3.80;99.10;;;;;;5017368;28;20427;-80
2020/12/08 09:15:15;;;;;;;55.08;22.33;;;3.90;97.40;;;;;;4987081;28;20034;-81
2020/12/08 09:17:41;;;;;;;49.78;22.17;;;3.90;96.40;;;;;;5033613;28;20129;-82
2020/12/08 09:20:06;;;;;;;49.92;22.48;;;3.90;95.40;;;;;;5015492;28;20037;-80
2020/12/08 09:22:32;;;;;;;52.03;22.52;;;3.90;95.30;;;;;;5016338;28;20045;-80
2020/12/08 09:24:58;;;;;;;52.83;23.27;;;3.90;95.30;;;;;;5015086;28;20044;-80
2020/12/08 09:27:23;;;;;;;47.88;21.67;;;3.80;95.10;;;;;;5012255;28;20501;-81
2020/12/08 09:29:49;;;;;;;53.97;22.98;;;3.90;95.50;;;;;;5017707;28;20034;-80
2020/12/08 09:32:15;;;;;;;47.08;22.42;;;4.00;95.10;;;;;;5014919;28;20037;-81
2020/12/08 09:34:40;;;;;;;45.22;21.10;;;4.00;94.80;;;;;;5014130;28;20045;-79
2020/12/08 09:37:06;;;;;;;52.13;22.05;;;4.00;94.70;;;;;;5013002;28;20103;-79
2020/12/08 09:39:32;;;;;;;58.83;22.83;;;4.00;94.90;;;;;;5017357;28;20557;-78
2020/12/08 09:41:58;;;;;;;54.92;23.48;;;4.00;94.60;;;;;;5025403;28;20048;-79
2020/12/08 09:44:25;;;;;;;48.65;22.13;;;4.00;94.70;;;;;;5016787;28;20044;-80
2020/12/08 09:46:50;;;;;;;60.58;24.58;;;4.00;94.70;;;;;;5021729;28;20044;-80
2020/12/08 09:49:16;;;;;;;59.00;22.80;;;4.10;94.80;;;;;;5019365;28;20067;-80
2020/12/08 09:51:42;;;;;;;53.58;24.45;;;4.50;94.80;;;;;;5020578;28;20044;-80
2020/12/08 09:54:07;;;;;;;55.50;23.30;;;4.10;94.60;;;;;;5028981;28;20604;-79
2020/12/08 09:56:33;;;;;;;51.72;24.17;;;4.10;95.10;;;;;;5044592;28;20246;-80
2020/12/08 09:58:59;;;;;;;48.15;21.42;;;4.10;94.70;;;;;;5038359;28;20043;-80
2020/12/08 10:01:29;;;;;;;62.05;23.17;;;4.10;94.60;;;;;;5045396;28;20032;-81
2020/12/08 10:03:56;;;;;;;48.03;21.50;;;4.00;94.60;;;;;;5022738;28;20038;-81
2020/12/08 10:06:22;;;;;;;54.80;21.85;;;4.00;94.50;;;;;;5018612;28;20114;-80
2020/12/08 10:08:48;;;;;;;55.58;24.33;;;4.10;94.40;;;;;;5017237;28;20552;-78
2020/12/08 10:11:14;;;;;;;46.17;22.00;;;4.10;94.70;;;;;;5032644;28;20240;-78
2020/12/08 10:13:42;;;;;;;45.40;20.35;;;4.20;94.70;;;;;;5028383;28;20055;-78
2020/12/08 10:16:09;;;;;;;47.08;21.00;;;4.20;94.40;;;;;;5012606;28;20065;-79
2020/12/08 10:18:35;;;;;;;50.80;20.90;;;4.30;94.40;;;;;;5016789;28;20061;-80
2020/12/08 10:21:01;;;;;;;49.78;23.50;;;4.40;93.80;;;;;;5015846;28;20040;-80
2020/12/08 10:23:27;;;;;;;55.85;23.33;;;4.40;93.70;;;;;;5018135;28;20346;-79
2020/12/08 10:25:53;;;;;;;49.78;21.88;;;4.40;93.40;;;;;;5016002;28;20475;-80
2020/12/08 10:28:18;;;;;;;53.85;22.20;;;4.40;92.00;;;;;;5015377;28;20628;-80
2020/12/08 10:30:44;;;;;;;53.95;23.17;;;4.50;92.80;;;;;;5019168;28;20065;-81
2020/12/08 10:33:10;;;;;;;52.42;21.92;;;4.50;92.00;;;;;;5011908;28;20061;-79
2020/12/08 10:35:35;;;;;;;54.03;23.05;;;4.40;92.40;;;;;;5014145;28;20121;-79
2020/12/08 10:38:01;;;;;;;52.50;22.67;;;4.50;92.20;;;;;;5009616;28;20038;-79
2020/12/08 10:40:27;;;;;;;45.28;21.58;;;4.60;92.00;;;;;;5018803;28;20439;-79
2020/12/08 10:42:52;;;;;;;51.25;22.85;;;4.60;91.90;;;;;;5029026;28;20052;-80
2020/12/08 10:45:18;;;;;;;55.13;23.77;;;4.70;91.90;;;;;;5029773;28;20571;-80
2020/12/08 10:47:43;;;;;;;48.33;21.17;;;4.90;91.40;;;;;;5024230;28;20418;-80
2020/12/08 10:50:09;;;;;;;58.33;23.55;;;4.70;90.30;;;;;;5016940;28;20037;-79
2020/12/08 10:52:34;;;;;;;58.40;21.90;;;4.80;90.70;;;;;;5018243;28;20080;-80
2020/12/08 10:55:00;;;;;;;51.50;21.83;;;4.70;90.40;;;;;;5024504;28;20030;-80
2020/12/08 10:57:26;;;;;;;57.33;21.92;;;4.80;90.40;;;;;;5031450;28;20111;-80
2020/12/08 10:59:52;;;;;;;46.78;21.45;;;4.70;90.70;;;;;;5019809;28;20471;-82
2020/12/08 11:02:17;;;;;;;48.90;21.73;;;4.90;90.40;;;;;;5017013;28;20037;-82
2020/12/08 11:04:43;;;;;;;48.88;21.75;;;4.80;90.00;;;;;;5029252;28;20117;-81
2020/12/08 11:07:09;;;;;;;47.35;23.08;;;4.90;90.10;;;;;;5013614;28;20494;-82
2020/12/08 11:09:35;;;;;;;49.58;21.60;;;5.00;89.90;;;;;;5017583;28;20046;-81
2020/12/08 11:12:00;;;;;;;47.10;21.10;;;4.90;89.90;;;;;;5031702;28;20368;-81
2020/12/08 11:14:28;;;;;;;53.08;22.02;;;5.10;90.00;;;;;;5022640;28;20032;-81
2020/12/08 11:16:54;;;;;;;51.13;21.75;;;5.10;90.00;;;;;;5035012;28;20065;-80
2020/12/08 11:19:19;;;;;;;48.40;20.85;;;5.10;89.80;;;;;;5019343;28;20053;-80
2020/12/08 11:21:45;;;;;;;58.65;22.13;;;5.00;89.90;;;;;;5027150;28;20046;-80
2020/12/08 11:24:11;;;;;;;41.83;20.45;;;5.10;90.10;;;;;;5047291;28;20045;-81
2020/12/08 11:26:37;;;;;;;43.90;20.73;;;5.20;89.20;;;;;;5043937;28;20030;-78
2020/12/08 11:29:03;;;;;;;41.50;19.48;;;5.20;87.50;;;;;;5013316;28;20084;-78
2020/12/08 11:31:28;;;;;;;43.30;19.08;;;5.20;86.90;;;;;;5025310;28;20040;-79
2020/12/08 11:33:54;;;;;;;43.22;19.25;;;5.20;86.50;;;;;;5011441;28;20037;-79
2020/12/08 11:36:20;;;;;;;44.53;19.60;;;5.20;85.30;;;;;;5015416;28;20068;-80
2020/12/08 11:38:45;;;;;;;49.10;19.92;;;5.30;84.50;;;;;;5008820;28;20073;-79
2020/12/08 11:41:11;;;;;;;52.90;20.15;;;5.30;84.10;;;;;;5003043;28;20465;-80
2020/12/08 11:43:37;;;;;;;44.17;20.20;;;5.40;84.20;;;;;;4987161;28;20056;-80
2020/12/08 11:46:03;;;;;;;43.90;20.13;;;5.50;84.30;;;;;;4955915;28;20056;-80
2020/12/08 11:48:30;;;;;;;45.80;20.20;;;5.60;83.80;;;;;;4996402;28;20045;-80
2020/12/08 11:50:56;;;;;;;52.47;20.88;;;5.60;83.70;;;;;;4975955;28;20094;-79
2020/12/08 11:53:22;;;;;;;42.42;20.02;;;5.70;83.60;;;;;;4979433;28;20117;-79
2020/12/08 11:55:49;;;;;;;45.45;21.58;;;5.80;82.90;;;;;;5021028;28;20143;-79
2020/12/08 11:58:15;;;;;;;43.05;19.58;;;5.90;81.90;;;;;;4963164;28;20402;-79
2020/12/08 12:00:41;;;;;;;45.97;18.27;;;5.80;81.50;;;;;;4989998;28;20049;-80
2020/12/08 12:03:07;;;;;;;38.50;18.90;;;5.90;81.50;;;;;;5009754;28;20064;-78
2020/12/08 12:05:32;;;;;;;41.05;18.70;;;5.80;81.60;;;;;;5009133;28;20038;-80
2020/12/08 12:07:58;;;;;;;43.22;19.52;;;5.80;82.50;;;;;;4972958;28;20050;-79
2020/12/08 12:10:24;;;;;;;39.13;18.13;;;5.80;81.70;;;;;;4983108;28;20345;-79
2020/12/08 12:12:49;;;;;;;36.47;16.65;;;5.80;82.00;;;;;;5005721;28;20045;-82
2020/12/08 12:15:15;;;;;;;43.65;17.73;;;5.80;82.00;;;;;;5018887;28;20014;-82
2020/12/08 12:17:40;;;;;;;34.00;16.70;;;5.70;81.30;;;;;;5014961;28;20037;-81
2020/12/08 12:20:07;;;;;;;35.40;17.40;;;5.70;80.90;;;;;;5018751;28;20069;-82
2020/12/08 12:22:34;;;;;;;32.53;15.68;;;5.80;81.50;;;;;;5019552;28;20128;-80
2020/12/08 12:25:00;;;;;;;37.00;15.75;;;5.80;80.70;;;;;;5024229;28;20029;-80
2020/12/08 12:27:25;;;;;;;31.25;15.90;;;5.80;79.70;;;;;;5020279;28;20048;-82
2020/12/08 12:29:51;;;;;;;33.25;15.15;;;5.80;78.80;;;;;;5014504;28;20034;-79
2020/12/08 12:32:17;;;;;;;34.22;16.30;;;5.80;79.00;;;;;;5020626;28;20037;-81